Mc Henry, Kentucky
Current Conditions -  °F | °C
As of 8:35 AM on Friday 28 Nov 2014 (Local Time) from K2I0 Reporting Station
Clear Clear  
Wind Chill: 25°   Ceiling: Unl
Heat Index: 32°   Visibility: 10mi
Dew Point: 26°   Wind: 7mph
Humidity: 80%   Direction: 190°S
Pressure: 30.4"   Gusts: NA
Location:  37.3808°N, 86.9237°W
Report Text: K2I0 281435Z AUTO 19006KT 10SM CLR 00/M03 A3040 RMK AO2 T10021032
Loading
Personal Weather Stations






























Interactive Weather Map New forecast layout! Learn more

10-Day Weather Forecast

Advertisements
Track Severe Weather on mobile